createdAt,value
2023-01-23T00:32:53.862Z,92.81
2023-01-23T00:35:21.425Z,91.02
2023-01-23T00:37:48.614Z,91.32
2023-01-23T00:40:15.763Z,91.67
2023-01-23T00:42:42.982Z,91.60
2023-01-23T00:45:10.673Z,91.35
2023-01-23T00:47:37.797Z,91.28
2023-01-23T00:50:05.676Z,90.48
2023-01-23T00:52:32.918Z,90.02
2023-01-23T00:55:00.282Z,90.01
2023-01-23T00:57:27.943Z,89.63
2023-01-23T00:59:55.090Z,89.15
2023-01-23T01:02:22.553Z,88.89
2023-01-23T01:04:49.711Z,89.37
2023-01-23T01:07:17.063Z,89.52
2023-01-23T01:09:44.215Z,89.36
2023-01-23T01:12:11.367Z,88.98
2023-01-23T01:14:38.515Z,88.91
2023-01-23T01:17:05.665Z,89.17
2023-01-23T01:19:32.816Z,89.34
2023-01-23T01:21:59.977Z,88.97
2023-01-23T01:24:27.143Z,88.85
2023-01-23T01:26:54.273Z,88.69
2023-01-23T01:29:23.576Z,88.67
2023-01-23T01:31:50.771Z,88.57
2023-01-23T01:34:19.523Z,88.26
2023-01-23T01:36:46.812Z,88.09
2023-01-23T01:39:14.031Z,88.24
2023-01-23T01:41:42.114Z,88.13
2023-01-23T01:44:18.983Z,88.04
2023-01-23T01:46:46.470Z,88.09
2023-01-23T01:49:33.975Z,88.39
2023-01-23T01:52:06.872Z,88.46
2023-01-23T01:54:39.547Z,88.08
2023-01-23T01:57:11.817Z,88.12
2023-01-23T01:59:46.862Z,87.92
2023-01-23T02:02:21.033Z,87.82
2023-01-23T02:04:49.966Z,87.81
2023-01-23T02:07:31.965Z,87.93
2023-01-23T02:09:59.120Z,87.76
2023-01-23T02:12:27.295Z,87.83
2023-01-23T02:14:54.652Z,87.80
2023-01-23T02:17:22.020Z,87.80
2023-01-23T02:20:25.730Z,87.61
2023-01-23T02:22:59.629Z,87.80
2023-01-23T02:25:44.711Z,87.73
2023-01-23T02:28:16.051Z,87.81
2023-01-23T02:30:46.975Z,88.17
2023-01-23T02:33:20.607Z,88.15
2023-01-23T02:35:48.172Z,87.73
2023-01-23T02:38:16.127Z,87.26
2023-01-23T02:40:43.279Z,87.42
2023-01-23T02:43:14.941Z,87.44
2023-01-23T02:45:47.564Z,87.06
2023-01-23T02:48:15.487Z,87.23
2023-01-23T02:50:45.303Z,87.49
2023-01-23T02:53:13.099Z,87.94
2023-01-23T02:55:43.615Z,87.28
2023-01-23T02:58:29.594Z,87.13
2023-01-23T03:00:56.964Z,86.89
2023-01-23T03:03:24.100Z,86.77
2023-01-23T03:05:51.663Z,86.71
2023-01-23T03:08:18.813Z,86.87
2023-01-23T03:10:45.967Z,86.95
2023-01-23T03:13:13.845Z,86.88
2023-01-23T03:15:42.539Z,86.79
2023-01-23T03:18:09.985Z,86.55
2023-01-23T03:20:40.838Z,86.48
2023-01-23T03:23:08.739Z,86.51
2023-01-23T03:25:35.941Z,86.59
2023-01-23T03:28:03.806Z,86.66
2023-01-23T03:30:31.290Z,86.72
2023-01-23T03:32:58.833Z,86.87
2023-01-23T03:35:26.304Z,86.97
2023-01-23T03:37:54.566Z,86.86
2023-01-23T03:40:42.515Z,86.68
2023-01-23T03:43:11.190Z,86.74
2023-01-23T03:45:42.983Z,86.44
2023-01-23T03:48:10.230Z,86.00
2023-01-23T03:50:37.461Z,86.22
2023-01-23T03:53:04.712Z,86.07
2023-01-23T03:55:32.067Z,85.98
2023-01-23T03:57:59.110Z,86.06
2023-01-23T04:00:29.337Z,86.15
2023-01-23T04:02:59.284Z,86.20
2023-01-23T04:05:26.711Z,86.20
2023-01-23T04:07:53.965Z,86.20
2023-01-23T04:10:22.591Z,85.77
2023-01-23T04:12:54.512Z,85.50
2023-01-23T04:15:21.670Z,85.47
2023-01-23T04:17:50.276Z,85.62
2023-01-23T04:20:17.751Z,85.21
2023-01-23T04:22:45.061Z,85.59
2023-01-23T04:25:12.224Z,85.59
2023-01-23T04:27:39.882Z,85.58
2023-01-23T04:30:08.180Z,85.58
2023-01-23T04:32:35.411Z,85.71
2023-01-23T04:35:02.868Z,85.82
2023-01-23T04:37:30.322Z,85.69
2023-01-23T04:39:57.477Z,85.42
2023-01-23T04:42:24.625Z,85.24
2023-01-23T04:45:00.889Z,84.63
2023-01-23T04:47:46.992Z,84.46
2023-01-23T04:50:14.548Z,84.17
2023-01-23T04:52:43.954Z,84.03
2023-01-23T04:55:11.824Z,83.82
2023-01-23T04:57:38.965Z,83.77
2023-01-23T05:00:14.106Z,84.07
2023-01-23T05:02:41.394Z,84.07
2023-01-23T05:05:09.166Z,84.35
2023-01-23T05:07:37.618Z,84.41
2023-01-23T05:10:07.997Z,84.21
2023-01-23T05:12:35.491Z,84.19
2023-01-23T05:15:02.843Z,83.92
2023-01-23T05:17:30.306Z,83.94
2023-01-23T05:19:57.470Z,84.01
2023-01-23T05:22:24.604Z,84.22
2023-01-23T05:24:52.164Z,84.44
2023-01-23T05:27:20.134Z,84.66
2023-01-23T05:29:48.310Z,85.00
2023-01-23T05:32:19.965Z,84.89
2023-01-23T05:35:02.684Z,84.74
2023-01-23T05:37:30.959Z,84.67
2023-01-23T05:40:04.925Z,84.66
2023-01-23T05:42:51.987Z,84.74
2023-01-23T05:45:48.322Z,84.73
2023-01-23T05:48:23.974Z,84.73
2023-01-23T05:50:51.142Z,84.65
2023-01-23T05:53:20.120Z,84.37
2023-01-23T05:55:47.237Z,83.83
2023-01-23T05:58:16.054Z,83.87
2023-01-23T06:01:14.435Z,83.46
2023-01-23T06:04:00.183Z,83.55
2023-01-23T06:06:34.753Z,83.54
2023-01-23T06:09:02.323Z,83.60
2023-01-23T06:11:31.513Z,83.55
2023-01-23T12:40:18.099Z,83.77
2023-01-23T12:43:12.181Z,81.28
2023-01-23T12:45:42.616Z,81.08
2023-01-23T12:48:33.129Z,80.64
2023-01-23T12:51:06.939Z,79.53
2023-01-23T12:53:37.677Z,79.49
2023-01-23T12:56:15.666Z,79.53
2023-01-23T12:59:00.320Z,79.47
2023-01-23T13:02:12.095Z,79.47
2023-01-23T13:05:06.305Z,79.64
2023-01-23T13:07:37.965Z,79.79
2023-01-23T13:10:26.722Z,80.00
2023-01-23T13:12:55.312Z,80.25
2023-01-23T13:15:38.752Z,80.12
2023-01-23T13:18:14.798Z,80.89
2023-01-23T13:21:17.601Z,80.94
2023-01-23T13:23:44.751Z,80.79
2023-01-23T13:26:23.561Z,81.07
2023-01-23T13:28:57.893Z,81.39
2023-01-23T13:31:47.546Z,81.82
2023-01-23T13:34:18.078Z,81.90
2023-01-23T13:36:46.221Z,82.19
2023-01-23T13:39:16.496Z,82.68
2023-01-23T13:41:44.793Z,82.52
2023-01-23T18:24:55.811Z,84.65
2023-01-23T18:27:25.934Z,82.54
2023-01-23T18:30:03.935Z,82.07
2023-01-23T18:32:54.945Z,81.74
2023-01-23T18:35:26.194Z,80.89
2023-01-23T18:38:13.517Z,80.79
2023-01-23T18:41:08.320Z,80.66
2023-01-23T18:43:43.871Z,80.11
2023-01-23T18:46:19.156Z,80.26
2023-01-23T18:48:48.210Z,80.10
2023-01-23T18:51:35.033Z,80.00
2023-01-23T18:54:06.271Z,79.67
2023-01-23T18:57:13.051Z,79.21
2023-01-23T18:59:50.441Z,79.39
2023-01-23T19:02:52.938Z,79.44
2023-01-23T19:05:29.804Z,79.54
2023-01-23T19:08:00.057Z,79.33
2023-01-23T19:10:40.133Z,78.99
2023-01-23T19:13:40.564Z,78.72
2023-01-23T19:16:17.854Z,78.93
2023-01-23T19:19:16.449Z,79.10
2023-01-23T19:21:46.412Z,78.78
2023-01-23T19:24:21.725Z,78.77
2023-01-23T19:26:51.067Z,78.74
2023-01-23T19:29:22.427Z,78.95
2023-01-23T19:32:09.317Z,79.13
2023-01-23T19:34:39.032Z,79.01
2023-01-23T19:37:08.438Z,78.76
2023-01-23T19:39:36.817Z,78.31
2023-01-23T19:42:05.397Z,78.45
2023-01-23T19:44:33.992Z,78.55
2023-01-23T19:47:03.738Z,78.22
2023-01-23T19:49:32.289Z,77.95
2023-01-23T19:52:02.209Z,78.09
2023-01-23T19:54:31.495Z,77.98
2023-01-23T19:57:00.081Z,78.28
2023-01-23T19:59:28.561Z,78.14
2023-01-23T20:02:00.051Z,77.89
2023-01-23T20:04:28.711Z,77.93
2023-01-23T20:06:57.593Z,77.93
2023-01-23T20:09:26.286Z,77.87
2023-01-23T20:11:58.248Z,77.62
2023-01-23T20:14:27.653Z,77.35
2023-01-23T20:16:56.613Z,77.10
2023-01-23T20:19:25.348Z,76.93
2023-01-23T20:21:53.714Z,77.04
2023-01-23T20:24:22.241Z,76.99
2023-01-23T20:26:50.829Z,77.16
2023-01-23T20:29:19.471Z,77.13
2023-01-23T20:31:47.958Z,76.81
2023-01-23T20:34:16.273Z,76.85
2023-01-23T20:36:44.918Z,76.81
2023-01-23T20:39:13.608Z,76.58
2023-01-23T20:41:42.091Z,76.47
2023-01-23T20:44:12.522Z,76.57
2023-01-23T20:46:41.624Z,76.40
2023-01-23T20:49:13.480Z,76.51
2023-01-23T20:51:41.862Z,77.00
2023-01-23T20:54:10.655Z,76.72
2023-01-23T20:56:39.046Z,76.50
2023-01-23T20:59:23.294Z,76.20
2023-01-23T21:02:10.517Z,75.77
2023-01-23T21:04:40.733Z,75.94
2023-01-23T21:07:09.223Z,76.29
2023-01-23T21:09:37.821Z,76.25
2023-01-23T21:12:07.207Z,76.11
2023-01-23T21:14:37.538Z,76.00
2023-01-23T21:17:06.328Z,76.43
2023-01-23T21:19:36.370Z,76.44
2023-01-23T21:22:06.274Z,76.36
2023-01-23T21:24:35.165Z,76.63
2023-01-23T21:27:04.699Z,76.58
2023-01-23T21:29:33.562Z,76.54
2023-01-23T21:32:02.003Z,76.65
2023-01-23T21:34:31.355Z,76.42
2023-01-23T21:36:59.938Z,76.08
